Time;durP1;ratioP1;P1;durP2;ratioP2;P2;SDS_P1;SDS_P2;PMS_P1;PMS_P2;Temp;Humidity;BMP_temperature;BMP_pressure;BME280_temperature;BME280_humidity;BME280_pressure;Samples;Min_cycle;Max_cycle;Signal;HPM_P1;HPM_P2
2023/07/07 00:00:27;;;;;;;3.78;2.28;;;;;;;25.69;50.62;99713.91;4424379;32;32168;-63
2023/07/07 00:02:54;;;;;;;5.40;2.53;;;;;;;25.58;50.85;99714.53;4433496;32;34166;-63
2023/07/07 00:05:22;;;;;;;5.00;2.67;;;;;;;25.65;50.73;99715.41;4433577;32;33829;-63
2023/07/07 00:07:50;;;;;;;5.78;2.85;;;;;;;25.59;50.92;99719.00;4433424;32;34316;-63
2023/07/07 00:10:18;;;;;;;3.90;2.12;;;;;;;25.60;51.02;99723.41;4431338;32;33577;-63
2023/07/07 00:12:46;;;;;;;5.55;2.17;;;;;;;25.58;51.28;99714.53;4434182;32;34187;-63
2023/07/07 00:15:14;;;;;;;4.03;1.85;;;;;;;25.64;51.23;99721.09;4435805;32;33828;-63
2023/07/07 00:17:42;;;;;;;4.07;1.87;;;;;;;25.65;51.24;99720.88;4432002;32;34956;-63
2023/07/07 00:20:11;;;;;;;3.95;1.92;;;;;;;25.61;51.53;99724.25;4433764;32;33638;-63
2023/07/07 00:22:39;;;;;;;5.85;2.12;;;;;;;25.65;51.30;99722.75;4434472;32;34776;-63
2023/07/07 00:25:08;;;;;;;5.55;2.35;;;;;;;25.63;51.17;99714.75;4435616;32;33987;-63
2023/07/07 00:27:37;;;;;;;5.65;2.72;;;;;;;25.55;51.05;99707.62;4434013;32;35517;-62
2023/07/07 00:30:06;;;;;;;5.05;2.75;;;;;;;25.52;51.05;99709.91;4433561;32;34642;-63
2023/07/07 00:32:34;;;;;;;4.07;2.65;;;;;;;25.56;51.11;99712.03;4430770;32;33656;-63
2023/07/07 00:35:03;;;;;;;5.72;2.30;;;;;;;25.51;51.36;99720.03;4433496;32;34027;-62
2023/07/07 00:37:31;;;;;;;4.90;2.20;;;;;;;25.55;51.48;99720.44;4430672;32;33929;-62
2023/07/07 00:39:59;;;;;;;4.07;2.25;;;;;;;25.52;51.36;99723.62;4435511;32;34994;-62
2023/07/07 00:42:27;;;;;;;4.95;2.28;;;;;;;25.55;51.24;99724.06;4431016;32;32805;-63
2023/07/07 00:45:14;;;;;;;6.93;3.10;;;;;;;25.42;51.55;99723.22;4434270;32;33265;-63
2023/07/07 00:48:01;;;;;;;4.70;2.12;;;;;;;25.49;51.28;99724.03;4431996;32;35415;-62
2023/07/07 00:50:40;;;;;;;5.18;2.50;;;;;;;25.48;51.29;99723.19;4424228;32;33067;-62
2023/07/07 00:53:08;;;;;;;4.30;2.47;;;;;;;25.44;51.43;99724.69;4431147;32;32966;-62
2023/07/07 00:55:38;;;;;;;4.75;2.25;;;;;;;25.39;51.55;99727.19;4432773;32;33821;-62
2023/07/07 00:58:09;;;;;;;5.32;2.85;;;;;;;25.38;51.72;99720.06;4432398;32;34146;-62
2023/07/07 01:00:38;;;;;;;6.47;2.37;;;;;;;25.39;51.65;99716.25;4424898;32;33896;-62
2023/07/07 01:03:13;;;;;;;10.77;3.08;;;;;;;25.41;51.67;99718.78;4417330;32;33117;-62
2023/07/07 01:05:42;;;;;;;5.62;1.98;;;;;;;25.39;51.66;99726.37;4377621;32;33433;-62
2023/07/07 01:08:10;;;;;;;5.65;2.30;;;;;;;25.36;51.82;99732.28;4370286;32;36431;-62
2023/07/07 01:10:37;;;;;;;4.80;2.30;;;;;;;25.42;51.54;99724.03;4369528;32;34752;-62
2023/07/07 01:13:05;;;;;;;4.30;2.62;;;;;;;25.39;51.64;99729.94;4368570;32;34277;-61
2023/07/07 01:15:35;;;;;;;4.87;2.03;;;;;;;25.39;51.57;99732.69;4356562;32;33827;-61
2023/07/07 01:18:21;;;;;;;4.80;2.22;;;;;;;25.35;51.78;99731.44;4372716;32;33892;-62
2023/07/07 01:21:03;;;;;;;4.62;2.40;;;;;;;25.31;52.00;99728.28;4365548;32;33892;-62
2023/07/07 01:23:48;;;;;;;5.12;2.83;;;;;;;25.36;51.83;99724.91;4359248;32;34128;-61
2023/07/07 01:26:26;;;;;;;5.25;2.50;;;;;;;25.33;51.81;99728.91;4388690;32;34652;-62
2023/07/07 01:29:06;;;;;;;6.10;3.03;;;;;;;25.31;51.91;99735.66;4376116;32;33655;-61
2023/07/07 01:31:40;;;;;;;5.78;2.83;;;;;;;25.29;51.84;99729.53;4381182;32;33451;-61
2023/07/07 01:34:12;;;;;;;;;;;;;;;25.24;51.87;99729.34;4378635;32;32970;-62
2023/07/07 01:36:40;;;;;;;5.10;2.20;;;;;;;25.21;52.00;99725.13;4401553;32;33783;-61
2023/07/07 01:39:10;;;;;;;5.72;2.83;;;;;;;25.22;52.17;99734.19;4431311;32;34941;-62
2023/07/07 01:41:44;;;;;;;7.00;2.75;;;;;;;25.24;51.72;99735.66;4421705;32;33823;-62
2023/07/07 01:44:35;;;;;;;6.43;3.27;;;;;;;25.23;51.75;99731.25;4430769;32;32841;-63
2023/07/07 01:47:21;;;;;;;6.32;3.10;;;;;;;25.22;51.51;99740.50;4433603;32;34148;-62
2023/07/07 01:50:01;;;;;;;6.47;2.90;;;;;;;25.11;51.30;99735.63;4435455;32;34079;-62
2023/07/07 01:52:28;;;;;;;5.90;3.05;;;;;;;25.10;51.02;99737.53;4432987;32;34684;-62
2023/07/07 01:55:03;;;;;;;7.37;2.85;;;;;;;25.09;51.03;99733.06;4432003;32;34216;-62
2023/07/07 01:57:31;;;;;;;3.87;2.15;;;;;;;25.07;51.32;99734.31;4433448;32;35075;-63
2023/07/07 02:00:00;;;;;;;5.35;2.25;;;;;;;25.05;51.50;99734.56;4433263;32;34960;-62
2023/07/07 02:02:28;;;;;;;7.20;3.22;;;;;;;24.94;51.65;99740.63;4424676;32;33650;-62
2023/07/07 02:04:56;;;;;;;6.37;2.58;;;;;;;25.00;51.27;99736.22;4436034;32;33090;-62
2023/07/07 02:07:23;;;;;;;3.97;2.35;;;;;;;24.93;51.28;99736.22;4435725;32;33950;-62
2023/07/07 02:09:51;;;;;;;5.57;2.62;;;;;;;24.95;51.64;99734.13;4433639;32;35000;-63
2023/07/07 02:12:19;;;;;;;4.45;2.40;;;;;;;24.99;51.63;99729.06;4434198;32;33844;-62
2023/07/07 02:14:47;;;;;;;7.05;2.70;;;;;;;25.01;51.57;99729.72;4433922;32;31705;-62
2023/07/07 02:17:15;;;;;;;9.15;3.33;;;;;;;24.98;51.62;99727.41;4434222;32;33590;-62
2023/07/07 02:19:43;;;;;;;5.75;2.80;;;;;;;25.04;51.34;99729.28;4435578;32;35198;-62
2023/07/07 02:22:12;;;;;;;7.65;3.35;;;;;;;25.07;51.28;99726.13;4435508;32;33641;-62
2023/07/07 02:24:39;;;;;;;5.57;2.45;;;;;;;25.04;51.21;99726.53;4434506;32;33004;-62
2023/07/07 02:27:10;;;;;;;6.25;3.17;;;;;;;24.84;51.76;99726.50;4436383;32;33645;-62
2023/07/07 02:29:38;;;;;;;4.37;2.50;;;;;;;24.95;51.35;99730.56;4433474;32;33798;-62
2023/07/07 02:32:07;;;;;;;4.22;2.20;;;;;;;24.93;51.58;99730.75;4429141;32;33388;-62
2023/07/07 02:34:35;;;;;;;6.12;2.60;;;;;;;24.87;51.81;99734.31;4433257;32;32468;-62
2023/07/07 02:37:03;;;;;;;6.47;2.78;;;;;;;24.85;51.96;99730.97;4431512;32;33802;-63
2023/07/07 02:39:30;;;;;;;5.37;2.78;;;;;;;24.96;51.42;99733.06;4433800;32;34087;-62
2023/07/07 02:41:58;;;;;;;4.28;1.83;;;;;;;24.96;51.62;99732.22;4434313;32;34539;-63
2023/07/07 02:44:26;;;;;;;5.62;3.17;;;;;;;24.72;52.16;99733.63;4430859;32;33170;-63
2023/07/07 02:46:54;;;;;;;3.80;2.20;;;;;;;24.91;51.64;99729.25;4434445;32;33581;-62
2023/07/07 02:49:22;;;;;;;3.90;2.03;;;;;;;24.82;51.81;99732.22;4432415;32;33762;-63
2023/07/07 02:51:49;;;;;;;5.28;2.70;;;;;;;24.77;52.05;99740.19;4435616;32;33878;-63
2023/07/07 02:54:17;;;;;;;3.90;2.30;;;;;;;24.80;51.75;99734.31;4431630;32;32796;-63
2023/07/07 02:56:45;;;;;;;5.60;2.70;;;;;;;24.82;51.84;99743.16;4435121;32;34578;-63
2023/07/07 02:59:13;;;;;;;10.35;2.62;;;;;;;24.90;51.51;99739.38;4435224;32;34112;-63
2023/07/07 03:01:44;;;;;;;5.35;2.60;;;;;;;24.75;52.06;99741.44;4435856;32;33684;-63
2023/07/07 03:04:12;;;;;;;6.62;2.53;;;;;;;24.73;52.15;99735.34;4435233;32;34510;-63
2023/07/07 03:06:41;;;;;;;7.00;3.10;;;;;;;24.73;51.88;99747.13;4434478;32;33520;-63
2023/07/07 03:09:09;;;;;;;5.80;2.35;;;;;;;24.77;51.69;99751.13;4434440;32;35622;-62
2023/07/07 03:11:37;;;;;;;4.18;2.40;;;;;;;24.83;51.53;99753.03;4429675;32;33768;-62
2023/07/07 03:14:05;;;;;;;10.15;3.45;;;;;;;24.86;51.40;99751.78;4434130;32;33408;-62
2023/07/07 03:16:34;;;;;;;7.55;2.45;;;;;;;24.87;51.34;99751.56;4422297;32;33561;-63
2023/07/07 03:19:07;;;;;;;7.07;2.67;;;;;;;24.85;51.19;99761.91;4429350;32;33750;-62
2023/07/07 03:21:35;;;;;;;5.32;2.65;;;;;;;24.90;50.77;99760.44;4403803;32;34657;-62
2023/07/07 03:24:03;;;;;;;7.85;2.45;;;;;;;24.85;50.97;99767.38;4408593;32;34101;-62
2023/07/07 03:26:32;;;;;;;5.10;2.58;;;;;;;24.83;50.96;99768.62;4411012;32;33356;-62
2023/07/07 03:29:01;;;;;;;5.62;2.53;;;;;;;24.77;50.96;99766.72;4412068;32;34620;-63
2023/07/07 03:31:33;;;;;;;8.15;2.10;;;;;;;24.81;50.97;99768.81;4408910;32;34628;-63
2023/07/07 03:34:04;;;;;;;7.40;2.75;;;;;;;24.73;50.54;99770.94;4413188;32;33502;-63
2023/07/07 03:36:33;;;;;;;4.62;2.30;;;;;;;24.64;50.71;99773.00;4413494;32;33638;-63
2023/07/07 03:39:01;;;;;;;5.60;2.17;;;;;;;24.71;50.55;99781.22;4409262;32;33746;-63
2023/07/07 03:41:30;;;;;;;3.87;1.98;;;;;;;24.58;51.00;99784.75;4412032;32;33663;-63
2023/07/07 03:43:58;;;;;;;4.78;2.25;;;;;;;24.86;50.24;99784.62;4411963;32;34362;-63
2023/07/07 03:46:29;;;;;;;5.37;2.33;;;;;;;24.77;50.59;99783.12;4413707;32;33568;-63
2023/07/07 03:48:57;;;;;;;13.23;3.47;;;;;;;24.72;50.59;99789.25;4413747;32;33780;-62
2023/07/07 03:51:34;;;;;;;5.45;2.83;;;;;;;24.57;50.49;99789.38;4412249;32;33793;-66
2023/07/07 03:54:03;;;;;;;4.57;2.75;;;;;;;24.44;50.61;99796.72;4430491;32;34077;-65
2023/07/07 03:56:32;;;;;;;5.82;2.78;;;;;;;24.33;50.88;99798.06;4430419;32;33670;-66
2023/07/07 03:58:59;;;;;;;7.47;2.92;;;;;;;24.18;51.24;99798.22;4433588;32;33632;-64
2023/07/07 04:01:27;;;;;;;8.48;3.92;;;;;;;24.20;51.22;99798.00;4432592;32;34043;-64
2023/07/07 04:03:56;;;;;;;6.20;2.62;;;;;;;24.01;51.58;99792.22;4429982;32;33040;-64
2023/07/07 04:06:25;;;;;;;5.18;2.62;;;;;;;23.93;51.64;99804.16;4430838;32;33517;-64
2023/07/07 04:08:55;;;;;;;5.80;2.78;;;;;;;23.97;51.44;99799.12;4433769;32;34051;-64
2023/07/07 04:11:24;;;;;;;7.75;2.95;;;;;;;23.85;51.76;99798.88;4432882;32;33681;-64
2023/07/07 04:13:52;;;;;;;4.00;1.95;;;;;;;23.93;51.53;99806.91;4431354;32;33303;-64
2023/07/07 04:16:22;;;;;;;4.35;2.15;;;;;;;23.92;51.57;99793.44;4425211;32;33023;-64
2023/07/07 04:18:53;;;;;;;4.72;2.37;;;;;;;23.91;51.58;99798.03;4433280;32;35243;-64
2023/07/07 04:21:23;;;;;;;6.93;2.95;;;;;;;23.96;51.25;99807.56;4427714;32;35021;-63
2023/07/07 04:23:52;;;;;;;6.25;3.12;;;;;;;24.02;51.40;99812.22;4432370;32;33107;-64
2023/07/07 04:26:21;;;;;;;5.68;3.37;;;;;;;23.99;51.55;99816.19;4430075;32;33449;-64
2023/07/07 04:28:51;;;;;;;5.75;2.75;;;;;;;24.11;51.32;99819.22;4430282;32;35276;-64
2023/07/07 04:31:21;;;;;;;3.78;2.28;;;;;;;24.22;50.84;99821.38;4431614;32;32868;-64
2023/07/07 04:33:49;;;;;;;4.60;2.55;;;;;;;24.03;51.66;99822.09;4432635;32;33214;-69
2023/07/07 04:36:16;;;;;;;6.97;2.40;;;;;;;24.36;51.15;99825.87;4430099;32;33823;-63
2023/07/07 04:38:45;;;;;;;7.82;2.85;;;;;;;24.60;50.07;99826.44;4428943;32;33842;-64
2023/07/07 04:41:17;;;;;;;7.03;3.25;;;;;;;24.63;49.86;99829.62;4432323;32;33629;-64
2023/07/07 04:44:05;;;;;;;11.23;4.82;;;;;;;24.42;50.08;99831.63;4429025;32;32866;-63
2023/07/07 04:46:35;;;;;;;6.05;2.95;;;;;;;24.59;49.59;99836.56;4428564;32;34556;-63
2023/07/07 04:49:08;;;;;;;6.05;2.95;;;;;;;24.67;49.42;99827.31;4433974;32;34998;-63
2023/07/07 04:51:37;;;;;;;7.53;2.87;;;;;;;24.57;49.71;99835.06;4431521;32;33890;-64
2023/07/07 04:54:06;;;;;;;7.47;2.15;;;;;;;24.61;49.26;99828.13;4431846;32;33372;-63
2023/07/07 04:56:34;;;;;;;5.50;2.67;;;;;;;24.52;49.73;99829.34;4430498;32;35424;-63
2023/07/07 04:59:02;;;;;;;10.18;2.35;;;;;;;24.63;49.68;99837.00;4431598;32;34230;-64
2023/07/07 05:01:30;;;;;;;5.60;2.65;;;;;;;24.27;50.57;99832.56;4426711;32;35666;-63
2023/07/07 05:04:00;;;;;;;9.93;2.72;;;;;;;24.44;50.09;99829.53;4433044;32;33056;-63
2023/07/07 05:06:30;;;;;;;5.30;2.62;;;;;;;24.69;48.73;99830.72;4431297;32;33439;-63
2023/07/07 05:08:58;;;;;;;5.50;3.17;;;;;;;24.61;48.74;99844.53;4429340;32;33857;-63
2023/07/07 05:11:29;;;;;;;5.65;3.42;;;;;;;24.36;49.00;99841.44;4432065;32;34709;-62
2023/07/07 05:13:57;;;;;;;6.85;3.40;;;;;;;24.47;48.70;99843.66;4431178;32;34165;-62
2023/07/07 05:16:29;;;;;;;9.52;3.35;;;;;;;24.58;48.46;99837.59;4430801;32;33998;-67
2023/07/07 05:18:57;;;;;;;8.15;3.05;;;;;;;24.62;48.49;99840.75;4426980;32;35024;-65
2023/07/07 05:21:25;;;;;;;6.85;2.37;;;;;;;24.69;48.80;99846.25;4432958;32;34751;-63
2023/07/07 05:23:53;;;;;;;5.05;2.85;;;;;;;24.71;48.95;99847.75;4430345;32;33084;-64
2023/07/07 05:26:23;;;;;;;5.90;2.92;;;;;;;24.79;48.80;99852.22;4424397;32;34694;-63
2023/07/07 05:28:51;;;;;;;6.62;2.83;;;;;;;24.84;48.89;99849.69;4430033;32;34979;-66
2023/07/07 05:31:20;;;;;;;6.72;2.37;;;;;;;24.87;48.95;99849.28;4428315;32;33656;-66
2023/07/07 05:33:47;;;;;;;5.50;2.70;;;;;;;24.87;48.91;99852.84;4432801;32;34703;-65
2023/07/07 05:36:15;;;;;;;8.50;2.92;;;;;;;24.89;48.76;99855.41;4431165;32;33452;-65
2023/07/07 05:38:43;;;;;;;6.45;3.28;;;;;;;24.87;48.35;99855.59;4430806;32;33733;-64
2023/07/07 05:41:10;;;;;;;7.40;3.50;;;;;;;24.86;47.99;99853.91;4432197;32;32334;-64
2023/07/07 05:43:38;;;;;;;6.15;3.08;;;;;;;24.86;48.16;99859.41;4431563;32;33190;-64
2023/07/07 05:46:09;;;;;;;5.93;3.33;;;;;;;24.90;48.22;99856.25;4433069;32;34536;-64
2023/07/07 05:48:36;;;;;;;5.37;2.55;;;;;;;24.90;48.16;99862.56;4431472;32;34100;-64
2023/07/07 05:51:06;;;;;;;4.90;2.30;;;;;;;24.93;48.10;99858.56;4435248;32;34885;-64
2023/07/07 05:53:35;;;;;;;11.63;2.47;;;;;;;24.95;47.50;99856.50;4430013;32;34055;-63
2023/07/07 05:56:08;;;;;;;3.55;2.05;;;;;;;25.00;47.33;99854.81;4436515;32;33872;-63
2023/07/07 05:58:36;;;;;;;7.72;3.05;;;;;;;25.08;47.06;99856.53;4417857;32;34063;-64
2023/07/07 06:01:04;;;;;;;10.85;3.03;;;;;;;25.17;47.14;99868.16;4430034;32;34480;-64
2023/07/07 06:03:32;;;;;;;6.80;2.87;;;;;;;25.35;46.95;99868.41;4431682;32;33350;-64
2023/07/07 06:06:00;;;;;;;6.00;2.90;;;;;;;25.46;46.45;99865.06;4435049;32;34576;-64
2023/07/07 06:08:31;;;;;;;5.95;2.97;;;;;;;25.53;45.25;99876.03;4431964;32;33643;-64
2023/07/07 06:10:59;;;;;;;4.37;2.65;;;;;;;25.59;45.30;99875.19;4434772;32;34447;-64
2023/07/07 06:13:28;;;;;;;6.28;2.80;;;;;;;25.65;45.13;99874.38;4434630;32;33238;-64
2023/07/07 06:15:56;;;;;;;4.82;2.55;;;;;;;25.71;44.42;99878.13;4436217;32;33426;-64
2023/07/07 06:18:24;;;;;;;12.80;2.85;;;;;;;25.82;44.91;99880.31;4427024;32;33817;-64
2023/07/07 06:20:58;;;;;;;6.28;2.78;;;;;;;25.93;44.40;99884.31;4429786;32;34775;-63
2023/07/07 06:23:27;;;;;;;;;;;;;;;25.99;43.95;99889.78;4431051;32;33289;-64
2023/07/07 06:25:54;;;;;;;6.50;2.67;;;;;;;26.06;43.13;99889.78;4433678;32;35309;-64
2023/07/07 06:28:22;;;;;;;5.75;3.00;;;;;;;26.07;42.80;99896.09;4433870;32;33868;-63
2023/07/07 06:30:50;;;;;;;4.50;2.87;;;;;;;25.96;43.70;99898.44;4430051;32;33866;-63
2023/07/07 06:33:19;;;;;;;4.90;2.85;;;;;;;26.20;42.19;99893.38;4431798;32;33232;-63
2023/07/07 06:35:48;;;;;;;6.60;2.47;;;;;;;26.30;42.39;99895.69;4433705;32;33497;-64
2023/07/07 06:38:16;;;;;;;3.58;2.10;;;;;;;26.56;42.54;99897.56;4434125;32;33777;-64
2023/07/07 06:40:45;;;;;;;4.32;2.10;;;;;;;26.56;40.78;99900.28;4433675;32;34685;-64
2023/07/07 06:43:17;;;;;;;7.53;2.78;;;;;;;26.47;39.92;99900.47;4428271;32;34026;-64
2023/07/07 06:45:49;;;;;;;4.25;2.10;;;;;;;26.31;42.40;99903.69;4434593;32;34760;-65
2023/07/07 06:48:16;;;;;;;8.75;2.92;;;;;;;26.86;39.71;99898.69;4416340;32;33736;-64
2023/07/07 06:50:44;;;;;;;8.77;2.60;;;;;;;26.66;40.70;99903.44;4414164;32;34461;-64
2023/07/07 06:53:12;;;;;;;5.93;3.08;;;;;;;26.24;42.19;99909.19;4414101;32;34150;-64
2023/07/07 06:55:40;;;;;;;5.87;2.67;;;;;;;26.65;40.76;99902.59;4414657;32;33438;-64
2023/07/07 06:58:12;;;;;;;6.32;2.90;;;;;;;27.05;39.68;99905.16;4414538;32;34964;-64
2023/07/07 07:00:41;;;;;;;5.95;3.10;;;;;;;27.03;39.91;99904.56;4410568;32;33559;-64
2023/07/07 07:03:09;;;;;;;4.15;2.65;;;;;;;26.62;40.47;99904.94;4418010;32;33117;-64
2023/07/07 07:05:38;;;;;;;6.70;2.53;;;;;;;26.64;40.39;99911.03;4413135;32;33877;-64
2023/07/07 07:08:05;;;;;;;6.03;3.12;;;;;;;26.86;41.86;99911.59;4409612;32;34903;-64
2023/07/07 07:10:33;;;;;;;5.72;2.97;;;;;;;27.21;39.65;99912.09;4413611;32;34966;-64
2023/07/07 07:13:00;;;;;;;8.02;3.42;;;;;;;27.16;38.91;99912.78;4398984;32;33262;-64
2023/07/07 07:15:28;;;;;;;5.72;2.80;;;;;;;27.25;39.16;99910.59;4399363;32;33942;-64
2023/07/07 07:17:56;;;;;;;7.07;3.30;;;;;;;27.51;39.00;99917.00;4401592;32;34140;-64
2023/07/07 07:20:23;;;;;;;7.20;2.97;;;;;;;27.40;39.07;99907.56;4410514;32;33681;-65
2023/07/07 07:22:51;;;;;;;8.02;2.72;;;;;;;27.13;38.54;99921.44;4399596;32;33142;-64
2023/07/07 07:25:19;;;;;;;6.03;3.17;;;;;;;27.36;38.33;99920.06;4409762;32;33822;-64
2023/07/07 07:27:47;;;;;;;5.03;2.62;;;;;;;27.58;39.00;99920.56;4426793;32;34631;-64
2023/07/07 07:30:15;;;;;;;7.62;2.78;;;;;;;27.37;39.13;99928.06;4426577;32;35055;-64
2023/07/07 07:32:43;;;;;;;8.13;3.10;;;;;;;26.79;39.45;99927.25;4424543;32;33901;-64
2023/07/07 07:35:11;;;;;;;7.93;3.42;;;;;;;26.95;39.66;99924.87;4419958;32;34593;-64
2023/07/07 07:37:40;;;;;;;6.35;2.62;;;;;;;27.13;38.79;99928.81;4431917;32;34046;-64
2023/07/07 07:40:08;;;;;;;6.35;3.22;;;;;;;27.09;39.12;99930.28;4427700;32;33843;-64
2023/07/07 07:42:36;;;;;;;4.53;2.40;;;;;;;27.20;39.44;99934.31;4424962;32;34022;-64
2023/07/07 07:45:04;;;;;;;6.18;2.72;;;;;;;27.45;38.92;99935.25;4429074;32;33759;-64
2023/07/07 07:47:33;;;;;;;5.25;2.70;;;;;;;27.41;40.01;99936.72;4435714;32;34156;-64
2023/07/07 07:50:01;;;;;;;6.30;3.33;;;;;;;27.23;38.18;99942.97;4417595;32;224979;-64
2023/07/07 07:52:29;;;;;;;5.93;2.72;;;;;;;27.20;39.14;99939.81;4431756;32;34444;-64
2023/07/07 07:54:57;;;;;;;8.18;2.70;;;;;;;27.47;38.66;99938.59;4408403;32;33484;-64
2023/07/07 07:57:24;;;;;;;4.80;2.78;;;;;;;26.64;39.54;99946.72;4419529;32;34092;-64
2023/07/07 07:59:52;;;;;;;6.57;2.85;;;;;;;27.30;38.41;99937.44;4419432;32;34926;-64
2023/07/07 08:02:20;;;;;;;8.90;3.47;;;;;;;27.57;38.17;99941.69;4426481;32;33095;-64
2023/07/07 08:04:48;;;;;;;7.62;3.60;;;;;;;26.83;39.23;99950.47;4426936;32;33437;-64
2023/07/07 08:07:15;;;;;;;7.32;2.35;;;;;;;27.15;38.87;99957.78;4430953;32;32772;-64
2023/07/07 08:09:43;;;;;;;5.95;2.40;;;;;;;27.13;38.41;99948.94;4430100;32;33392;-64
2023/07/07 08:12:10;;;;;;;6.43;2.75;;;;;;;27.10;38.96;99957.56;4422813;32;33376;-64
2023/07/07 08:14:38;;;;;;;7.47;2.30;;;;;;;27.10;37.51;99960.31;4422291;32;34566;-64
2023/07/07 08:17:09;;;;;;;4.97;2.65;;;;;;;26.93;37.29;99953.59;4426593;32;34826;-65
2023/07/07 08:19:39;;;;;;;6.03;2.42;;;;;;;27.46;37.31;99949.81;4425093;32;34687;-65
2023/07/07 08:22:11;;;;;;;6.12;2.85;;;;;;;27.51;38.25;99947.25;4425837;32;34439;-65
2023/07/07 08:24:41;;;;;;;6.70;3.30;;;;;;;27.72;37.02;99946.06;4429475;32;34587;-65
2023/07/07 08:27:09;;;;;;;6.72;2.90;;;;;;;27.53;37.39;99954.22;4436011;32;35731;-65
2023/07/07 08:29:41;;;;;;;5.62;2.67;;;;;;;27.40;38.60;99957.03;4432457;32;33850;-65
2023/07/07 08:32:11;;;;;;;6.53;2.67;;;;;;;27.74;37.00;99960.44;4406643;32;33982;-65
2023/07/07 08:34:39;;;;;;;10.73;3.60;;;;;;;27.83;36.63;99953.63;4412877;32;33791;-65
2023/07/07 08:37:23;;;;;;;13.40;3.25;;;;;;;27.62;37.33;99960.31;4408410;32;35477;-65
2023/07/07 08:39:51;;;;;;;6.70;3.15;;;;;;;27.85;37.08;99955.09;4400918;32;34304;-64
2023/07/07 08:42:33;;;;;;;6.05;3.20;;;;;;;27.15;38.35;99956.94;4404327;32;34149;-64
2023/07/07 08:45:05;;;;;;;7.53;2.78;;;;;;;26.77;38.49;99962.31;4399139;32;33691;-65
2023/07/07 08:47:54;;;;;;;5.55;2.75;;;;;;;27.10;37.40;99964.97;4400593;32;34956;-65
2023/07/07 08:50:33;;;;;;;5.82;2.92;;;;;;;27.67;36.89;99957.72;4414900;32;33793;-65
2023/07/07 08:53:21;;;;;;;5.55;2.50;;;;;;;27.93;37.12;99959.50;4390653;32;33288;-65
2023/07/07 08:55:56;;;;;;;6.15;3.37;;;;;;;27.87;37.35;99960.38;4399067;32;33673;-65
2023/07/07 08:58:23;;;;;;;5.97;3.07;;;;;;;28.16;36.38;99958.06;4397247;32;35946;-65
2023/07/07 09:01:10;;;;;;;13.38;3.10;;;;;;;28.27;35.44;99963.66;4403311;32;33822;-64
2023/07/07 09:04:02;;;;;;;5.22;3.25;;;;;;;27.99;36.15;99968.75;4396171;32;34564;-65
2023/07/07 09:06:48;;;;;;;5.57;2.90;;;;;;;28.29;36.07;99975.28;4410029;32;35065;-68
2023/07/07 09:09:26;;;;;;;10.52;3.00;;;;;;;28.10;35.49;99979.88;4408723;32;33616;-63
2023/07/07 09:12:04;;;;;;;7.20;2.95;;;;;;;28.52;35.39;99974.69;4395501;32;33560;-63
2023/07/07 09:14:33;;;;;;;8.25;3.12;;;;;;;28.76;34.67;99969.34;4407996;32;33457;-64
2023/07/07 09:17:15;;;;;;;6.45;3.03;;;;;;;28.54;35.23;99966.22;4404680;32;34546;-64
2023/07/07 09:19:44;;;;;;;5.90;3.05;;;;;;;28.66;34.95;99977.28;4424971;32;35528;-64
2023/07/07 09:22:22;;;;;;;6.75;3.15;;;;;;;28.63;35.66;99972.25;4415363;32;33930;-64
2023/07/07 09:24:52;;;;;;;6.90;3.53;;;;;;;28.54;35.17;99975.31;4400506;32;34456;-64
2023/07/07 09:27:27;;;;;;;5.07;2.97;;;;;;;28.72;33.94;99976.38;4398756;32;33846;-65
2023/07/07 09:30:05;;;;;;;5.03;2.80;;;;;;;28.29;34.31;99971.69;4388157;32;34216;-65
2023/07/07 09:32:33;;;;;;;5.00;2.50;;;;;;;28.36;34.52;99977.97;4399623;32;34694;-65
2023/07/07 09:35:01;;;;;;;4.70;2.80;;;;;;;28.20;35.12;99978.53;4398471;32;33263;-64
2023/07/07 09:38:14;;;;;;;7.45;3.30;;;;;;;28.20;34.25;99981.28;4397877;32;33058;-65
2023/07/07 09:41:14;;;;;;;7.00;2.95;;;;;;;28.46;34.04;99977.50;4369588;32;35365;-64
2023/07/07 09:44:14;;;;;;;7.95;3.75;;;;;;;28.71;34.68;99974.72;4350519;32;34674;-63
2023/07/07 09:47:28;;;;;;;6.10;3.22;;;;;;;28.76;35.23;99980.34;4356549;32;34523;-64
2023/07/07 09:50:09;;;;;;;5.25;3.30;;;;;;;28.98;34.29;99978.00;4309511;33;33600;-64
2023/07/07 09:53:11;;;;;;;7.90;3.47;;;;;;;28.78;35.02;99979.06;4310134;33;33741;-64
2023/07/07 09:55:50;;;;;;;8.38;3.83;;;;;;;28.68;34.69;99972.41;4308603;33;33754;-63
2023/07/07 09:58:33;;;;;;;9.02;3.85;;;;;;;28.94;32.58;99979.53;4308888;33;33453;-64
2023/07/07 10:01:02;;;;;;;10.95;4.03;;;;;;;28.95;31.91;99975.72;4310082;33;34042;-64
2023/07/07 10:03:36;;;;;;;4.28;2.17;;;;;;;28.75;33.09;99979.53;4300574;33;33771;-64
2023/07/07 10:06:09;;;;;;;6.93;3.33;;;;;;;28.68;32.67;99981.50;4339742;33;33621;-64
2023/07/07 10:08:36;;;;;;;8.23;3.80;;;;;;;28.62;34.64;99981.56;4328970;33;35177;-63
2023/07/07 10:11:15;;;;;;;8.60;3.20;;;;;;;28.54;32.34;99977.22;4342217;32;34125;-63
2023/07/07 10:14:05;;;;;;;7.68;4.20;;;;;;;28.79;31.35;99975.22;4311705;33;34964;-64
2023/07/07 10:16:33;;;;;;;7.53;3.28;;;;;;;28.95;32.10;99973.78;4313202;33;34748;-64
2023/07/07 10:19:07;;;;;;;10.07;3.67;;;;;;;29.05;31.64;99981.56;4326152;33;34445;-64
2023/07/07 10:21:36;;;;;;;8.90;3.50;;;;;;;29.15;31.37;99970.84;4314913;33;33731;-64
2023/07/07 10:24:03;;;;;;;5.05;2.53;;;;;;;29.60;31.44;99975.12;4314406;33;33645;-64
2023/07/07 10:26:32;;;;;;;8.98;4.00;;;;;;;29.74;31.32;99971.13;4343488;32;34599;-64
2023/07/07 10:29:02;;;;;;;8.15;3.65;;;;;;;29.69;30.15;99974.59;4399520;32;33187;-64
2023/07/07 10:31:30;;;;;;;5.57;2.75;;;;;;;29.52;31.16;99968.03;4401659;32;35052;-64
2023/07/07 10:34:00;;;;;;;7.70;4.18;;;;;;;29.77;30.54;99967.91;4396580;32;34752;-64
2023/07/07 10:36:32;;;;;;;5.82;3.15;;;;;;;29.96;29.08;99973.38;4403576;32;35027;-64
2023/07/07 10:39:00;;;;;;;5.75;3.33;;;;;;;29.98;28.76;99966.50;4395870;32;33203;-64
2023/07/07 10:41:28;;;;;;;8.10;4.22;;;;;;;29.41;29.57;99969.66;4395735;32;33166;-64
2023/07/07 10:43:56;;;;;;;7.95;4.05;;;;;;;29.63;29.49;99971.94;4401117;32;34120;-64
2023/07/07 10:46:23;;;;;;;5.50;3.40;;;;;;;29.66;28.68;99960.44;4423946;32;34993;-64
2023/07/07 10:48:54;;;;;;;6.82;3.58;;;;;;;29.70;28.93;99959.75;4422875;32;34216;-64
2023/07/07 10:51:43;;;;;;;7.20;3.50;;;;;;;29.97;28.59;99966.75;4424833;32;33749;-64
2023/07/07 10:54:53;;;;;;;10.05;4.68;;;;;;;29.93;28.14;99963.66;4426275;32;33910;-64
2023/07/07 10:57:53;;;;;;;9.02;4.32;;;;;;;30.16;27.60;99957.31;4399301;32;33614;-64
2023/07/07 11:01:08;;;;;;;8.23;3.78;;;;;;;30.24;26.70;99959.78;4398327;32;33647;-64
2023/07/07 11:03:53;;;;;;;8.55;3.50;;;;;;;30.24;27.22;99968.06;4355801;32;33744;-65
2023/07/07 11:06:42;;;;;;;7.55;3.15;;;;;;;29.78;27.99;99960.47;4354514;32;34197;-64
2023/07/07 11:09:25;;;;;;;7.10;4.12;;;;;;;29.59;28.09;99965.16;4353783;32;33617;-65
2023/07/07 11:12:16;;;;;;;6.05;3.50;;;;;;;29.47;27.27;99960.47;4354059;32;34463;-64
2023/07/07 11:14:50;;;;;;;6.93;3.62;;;;;;;29.18;28.34;99961.25;4355109;32;33003;-64
2023/07/07 11:17:59;;;;;;;5.57;3.62;;;;;;;29.19;27.79;99963.81;4355618;32;33368;-63
2023/07/07 11:20:43;;;;;;;6.07;3.22;;;;;;;29.33;28.23;99958.94;4314646;33;33911;-64
2023/07/07 11:23:36;;;;;;;7.30;4.20;;;;;;;29.59;27.48;99956.91;4318572;33;32947;-67
2023/07/07 11:26:11;;;;;;;6.60;2.92;;;;;;;29.85;27.62;99962.03;4317805;33;33398;-63
2023/07/07 11:28:46;;;;;;;6.12;2.97;;;;;;;30.20;27.67;99946.69;4317997;33;34862;-63
2023/07/07 11:31:20;;;;;;;7.20;3.62;;;;;;;30.46;28.75;99948.97;4319506;33;33878;-63
2023/07/07 11:33:48;;;;;;;6.50;3.08;;;;;;;30.32;27.34;99948.37;4328124;32;33080;-63
2023/07/07 11:36:44;;;;;;;9.25;3.62;;;;;;;29.76;26.93;99949.69;4381313;32;33700;-62
2023/07/07 11:39:28;;;;;;;7.80;3.62;;;;;;;30.20;27.58;99949.44;4381343;32;33499;-62
2023/07/07 11:42:13;;;;;;;9.60;4.47;;;;;;;30.58;26.46;99946.19;4367018;32;33567;-62
2023/07/07 11:44:59;;;;;;;7.97;3.40;;;;;;;30.52;27.72;99949.94;4369019;32;32778;-61
2023/07/07 11:47:55;;;;;;;6.57;3.90;;;;;;;29.89;27.48;99952.25;4381701;32;34495;-62
2023/07/07 11:50:32;;;;;;;7.72;4.70;;;;;;;29.65;27.78;99944.97;4382718;32;33904;-62
2023/07/07 11:53:08;;;;;;;8.38;3.78;;;;;;;29.88;28.82;99946.94;4378627;32;33754;-62
2023/07/07 11:55:53;;;;;;;5.47;3.33;;;;;;;29.54;28.01;99952.09;4383667;32;33620;-62
2023/07/07 11:58:36;;;;;;;7.28;2.92;;;;;;;28.68;28.87;99951.22;4424303;32;32295;-62